Time;durP1;ratioP1;P1;durP2;ratioP2;P2;SDS_P1;SDS_P2;PMS_P1;PMS_P2;Temp;Humidity;BMP_temperature;BMP_pressure;BME280_temperature;BME280_humidity;BME280_pressure;Samples;Min_cycle;Max_cycle;Signal;HPM_P1;HPM_P2
2020/12/13 00:00:36;;;;;;;85.73;32.73;;;;;;;;;;4972879;28;20031;-78
2020/12/13 00:03:02;;;;;;;82.97;31.47;;;;;;;;;;4969552;28;20023;-79
2020/12/13 00:05:29;;;;;;;70.50;29.87;;;;;;;;;;4969854;28;20112;-79
2020/12/13 00:07:55;;;;;;;69.30;31.07;;;;;;;;;;4964308;28;20031;-79
2020/12/13 00:10:22;;;;;;;60.80;28.53;;;;;;;;;;4970451;28;20035;-78
2020/12/13 00:12:48;;;;;;;79.93;31.37;;;;;;;;;;4975550;28;20031;-77
2020/12/13 00:15:14;;;;;;;98.67;32.47;;;;;;;;;;4981538;28;20031;-79
2020/12/13 00:17:40;;;;;;;112.23;34.80;;;;;;;;;;4977317;28;20069;-79
2020/12/13 00:20:07;;;;;;;149.17;39.07;;;;;;;;;;4974425;28;20057;-79
2020/12/13 00:22:33;;;;;;;266.80;44.37;;;;;;;;;;4969859;28;20117;-79
2020/12/13 00:24:59;;;;;;;239.90;44.93;;;;;;;;;;4983097;28;20023;-78
2020/12/13 00:27:25;;;;;;;190.93;37.90;;;;;;;;;;4972834;28;20081;-79
2020/12/13 00:29:51;;;;;;;277.67;41.47;;;;;;;;;;4967164;28;20035;-78
2020/12/13 00:32:18;;;;;;;231.33;40.93;;;;;;;;;;4976796;28;20027;-79
2020/12/13 00:34:44;;;;;;;234.57;37.93;;;;;;;;;;4975834;28;20045;-78
2020/12/13 00:37:10;;;;;;;319.83;47.00;;;;;;;;;;4983877;28;20089;-79
2020/12/13 00:39:38;;;;;;;168.40;31.43;;;;;;;;;;4976750;28;20047;-78
2020/12/13 00:42:05;;;;;;;181.77;34.37;;;;;;;;;;4976855;28;20553;-79
2020/12/13 00:44:31;;;;;;;171.10;32.80;;;;;;;;;;4965058;28;20027;-79
2020/12/13 00:46:57;;;;;;;230.80;38.23;;;;;;;;;;4959806;28;20027;-78
2020/12/13 00:49:23;;;;;;;323.50;42.33;;;;;;;;;;4977478;28;20035;-78
2020/12/13 00:51:49;;;;;;;195.70;32.10;;;;;;;;;;4960683;28;20054;-79
2020/12/13 00:54:15;;;;;;;255.53;39.40;;;;;;;;;;4966495;28;20034;-79
2020/12/13 00:56:44;;;;;;;263.20;40.83;;;;;;;;;;5000852;28;20818;-78
2020/12/13 00:59:10;;;;;;;262.17;35.83;;;;;;;;;;4976912;28;20027;-79
2020/12/13 01:01:36;;;;;;;169.77;32.00;;;;;;;;;;4990127;28;20124;-78
2020/12/13 01:04:03;;;;;;;294.03;39.13;;;;;;;;;;4978763;28;20026;-79
2020/12/13 01:06:29;;;;;;;283.73;39.37;;;;;;;;;;4980416;28;20169;-78
2020/12/13 01:08:55;;;;;;;275.90;35.10;;;;;;;;;;4975505;28;20039;-78
2020/12/13 01:11:26;;;;;;;173.53;31.03;;;;;;;;;;4976673;28;20027;-78
2020/12/13 01:13:52;;;;;;;204.73;30.53;;;;;;;;;;4962017;29;20031;-78
2020/12/13 01:16:19;;;;;;;209.93;32.70;;;;;;;;;;4973792;28;20700;-79
2020/12/13 01:18:45;;;;;;;296.83;40.27;;;;;;;;;;4975016;28;20054;-79
2020/12/13 01:21:17;;;;;;;216.00;32.23;;;;;;;;;;4962581;28;20540;-77
2020/12/13 01:23:43;;;;;;;190.00;32.77;;;;;;;;;;4963008;29;20039;-78
2020/12/13 01:26:13;;;;;;;185.60;29.23;;;;;;;;;;4966518;28;20038;-79
2020/12/13 01:28:39;;;;;;;154.30;27.50;;;;;;;;;;4981999;28;20030;-78
2020/12/13 01:31:05;;;;;;;306.60;37.30;;;;;;;;;;4982517;28;20316;-79
2020/12/13 01:33:32;;;;;;;246.43;36.60;;;;;;;;;;4971410;28;20042;-78
2020/12/13 01:35:58;;;;;;;158.67;30.67;;;;;;;;;;4981509;28;20425;-77
2020/12/13 01:38:24;;;;;;;277.03;35.50;;;;;;;;;;4981156;28;20038;-78
2020/12/13 01:41:00;;;;;;;206.80;32.27;;;;;;;;;;4980498;28;20490;-79
2020/12/13 01:43:26;;;;;;;202.97;29.97;;;;;;;;;;4969985;28;20038;-79
2020/12/13 01:45:52;;;;;;;161.10;29.30;;;;;;;;;;4961204;28;20039;-79
2020/12/13 01:48:19;;;;;;;220.00;30.70;;;;;;;;;;4961138;29;20046;-78
2020/12/13 01:51:00;;;;;;;129.53;26.77;;;;;;;;;;4976172;28;20034;-79
2020/12/13 01:53:28;;;;;;;169.57;29.30;;;;;;;;;;4977387;28;20093;-79
2020/12/13 01:55:57;;;;;;;206.00;30.93;;;;;;;;;;4980739;28;20494;-79
2020/12/13 01:58:28;;;;;;;182.53;28.73;;;;;;;;;;4980431;28;20063;-79
2020/12/13 02:00:55;;;;;;;185.70;27.37;;;;;;;;;;4991818;28;20123;-79
2020/12/13 02:03:23;;;;;;;121.80;24.83;;;;;;;;;;4983421;28;20026;-79
2020/12/13 02:05:51;;;;;;;183.27;27.63;;;;;;;;;;4984361;28;20483;-78
2020/12/13 02:08:21;;;;;;;177.67;24.73;;;;;;;;;;4973357;28;20067;-79
2020/12/13 02:10:47;;;;;;;142.10;24.37;;;;;;;;;;4996761;28;20038;-79
2020/12/13 02:13:13;;;;;;;251.50;33.17;;;;;;;;;;4983079;28;20697;-79
2020/12/13 02:15:39;;;;;;;148.40;26.23;;;;;;;;;;4965735;28;20031;-79
2020/12/13 02:18:06;;;;;;;170.63;28.23;;;;;;;;;;4974245;28;21442;-79
2020/12/13 02:20:32;;;;;;;176.53;26.37;;;;;;;;;;4982320;28;20038;-79
2020/12/13 02:22:58;;;;;;;177.20;27.80;;;;;;;;;;4965069;28;20039;-79
2020/12/13 02:25:24;;;;;;;89.80;20.87;;;;;;;;;;4962184;28;20023;-79
2020/12/13 02:27:51;;;;;;;93.17;20.23;;;;;;;;;;4962064;28;20023;-79
2020/12/13 02:30:17;;;;;;;84.80;20.07;;;;;;;;;;4973520;28;20067;-79
2020/12/13 02:32:43;;;;;;;41.00;16.00;;;;;;;;;;4962191;28;20142;-79
2020/12/13 02:35:10;;;;;;;59.03;16.53;;;;;;;;;;4963233;28;20034;-79
2020/12/13 02:37:36;;;;;;;80.23;18.67;;;;;;;;;;4973455;28;20963;-79
2020/12/13 02:40:03;;;;;;;47.40;16.00;;;;;;;;;;4965409;28;20066;-79
2020/12/13 02:42:29;;;;;;;55.43;16.07;;;;;;;;;;4961314;28;20071;-79
2020/12/13 02:44:55;;;;;;;92.23;18.47;;;;;;;;;;4962615;28;20118;-78
2020/12/13 02:47:21;;;;;;;148.40;20.10;;;;;;;;;;4961082;28;20035;-79
2020/12/13 02:49:47;;;;;;;220.40;27.27;;;;;;;;;;4973003;28;20034;-79
2020/12/13 02:52:17;;;;;;;270.13;29.27;;;;;;;;;;4975590;28;20402;-79
2020/12/13 02:54:43;;;;;;;309.23;31.70;;;;;;;;;;4980047;28;20034;-79
2020/12/13 02:57:09;;;;;;;269.33;30.53;;;;;;;;;;4981089;28;20087;-79
2020/12/13 02:59:35;;;;;;;285.53;35.13;;;;;;;;;;4981052;28;20346;-79
2020/12/13 03:02:01;;;;;;;322.50;37.43;;;;;;;;;;4979307;28;20067;-79
2020/12/13 03:04:28;;;;;;;322.87;38.63;;;;;;;;;;4982579;28;20027;-78
2020/12/13 03:06:54;;;;;;;258.33;39.10;;;;;;;;;;4982989;28;20471;-78
2020/12/13 03:09:20;;;;;;;182.23;35.33;;;;;;;;;;4981824;28;20043;-78
2020/12/13 03:11:46;;;;;;;245.37;41.10;;;;;;;;;;4992306;28;20055;-78
2020/12/13 03:14:12;;;;;;;279.50;41.47;;;;;;;;;;4999028;28;20037;-79
2020/12/13 03:16:38;;;;;;;240.83;37.67;;;;;;;;;;4979585;28;20061;-79
2020/12/13 03:19:04;;;;;;;240.13;38.67;;;;;;;;;;4973506;28;20026;-79
2020/12/13 03:21:31;;;;;;;215.70;39.63;;;;;;;;;;4965443;28;20031;-79
2020/12/13 03:23:57;;;;;;;219.87;39.73;;;;;;;;;;4977137;28;20027;-79
2020/12/13 03:26:23;;;;;;;196.17;35.03;;;;;;;;;;4977322;28;20566;-78
2020/12/13 03:28:49;;;;;;;179.20;38.10;;;;;;;;;;4975953;28;20417;-78
2020/12/13 03:31:15;;;;;;;140.47;29.57;;;;;;;;;;4963500;28;20089;-79
2020/12/13 03:33:41;;;;;;;129.77;34.00;;;;;;;;;;4971818;28;20031;-78
2020/12/13 03:36:07;;;;;;;202.07;41.37;;;;;;;;;;4976450;28;20041;-78
2020/12/13 03:38:34;;;;;;;220.53;39.40;;;;;;;;;;4976464;28;20031;-78
2020/12/13 03:41:00;;;;;;;177.77;40.07;;;;;;;;;;4976983;28;20069;-78
2020/12/13 03:43:26;;;;;;;231.97;40.90;;;;;;;;;;4978275;28;20031;-78
2020/12/13 03:45:52;;;;;;;209.93;41.33;;;;;;;;;;4970073;28;20031;-79
2020/12/13 03:48:18;;;;;;;106.83;33.23;;;;;;;;;;4961487;28;20039;-79
2020/12/13 03:50:44;;;;;;;105.77;34.60;;;;;;;;;;4960254;29;20037;-78
2020/12/13 03:53:11;;;;;;;98.03;34.40;;;;;;;;;;4972908;28;20551;-78
2020/12/13 03:55:37;;;;;;;82.80;31.47;;;;;;;;;;4981080;28;20051;-78
2020/12/13 03:58:04;;;;;;;76.27;31.53;;;;;;;;;;4958997;28;20046;-79
2020/12/13 04:00:31;;;;;;;77.50;30.43;;;;;;;;;;4969998;28;20069;-79
2020/12/13 04:02:57;;;;;;;70.53;29.47;;;;;;;;;;4968706;28;20038;-79
2020/12/13 04:05:24;;;;;;;61.00;27.57;;;;;;;;;;4986688;28;20057;-79
2020/12/13 04:07:51;;;;;;;59.53;28.17;;;;;;;;;;4977638;28;20046;-79
2020/12/13 04:10:18;;;;;;;52.30;26.47;;;;;;;;;;4979710;28;20109;-79
2020/12/13 04:12:44;;;;;;;49.57;25.67;;;;;;;;;;4960319;28;20031;-78
2020/12/13 04:15:10;;;;;;;45.70;23.70;;;;;;;;;;4971857;28;20034;-79
2020/12/13 04:17:36;;;;;;;47.57;25.83;;;;;;;;;;4993413;28;20030;-78
2020/12/13 04:20:04;;;;;;;44.60;24.47;;;;;;;;;;4977509;28;20465;-77
2020/12/13 04:22:30;;;;;;;48.40;25.40;;;;;;;;;;4976832;28;20027;-78
2020/12/13 04:24:56;;;;;;;48.93;26.33;;;;;;;;;;4976620;28;20038;-78
2020/12/13 04:27:22;;;;;;;42.67;22.73;;;;;;;;;;4974624;28;20030;-77
2020/12/13 04:29:48;;;;;;;39.87;22.67;;;;;;;;;;4958351;28;20130;-78
2020/12/13 04:32:14;;;;;;;37.40;20.70;;;;;;;;;;4964712;28;20031;-78
2020/12/13 04:34:41;;;;;;;41.17;21.67;;;;;;;;;;4976641;28;20077;-78
2020/12/13 04:37:07;;;;;;;47.33;23.60;;;;;;;;;;4976374;28;20121;-78
2020/12/13 04:39:36;;;;;;;40.73;22.27;;;;;;;;;;4975687;28;20037;-77
2020/12/13 04:42:03;;;;;;;36.20;20.40;;;;;;;;;;4970675;28;20039;-78
2020/12/13 04:44:29;;;;;;;41.07;22.17;;;;;;;;;;4960963;28;20070;-78
2020/12/13 04:46:56;;;;;;;41.20;23.13;;;;;;;;;;4975252;28;20066;-76
2020/12/13 04:49:23;;;;;;;41.07;21.50;;;;;;;;;;4974486;28;20085;-78
2020/12/13 04:51:50;;;;;;;34.23;18.97;;;;;;;;;;4975175;28;20034;-78
2020/12/13 04:54:19;;;;;;;37.43;20.70;;;;;;;;;;4974583;28;20027;-78
2020/12/13 04:56:48;;;;;;;42.23;21.83;;;;;;;;;;4975792;28;20031;-78
2020/12/13 04:59:14;;;;;;;37.97;20.80;;;;;;;;;;4974981;28;20034;-77
2020/12/13 05:01:40;;;;;;;37.70;21.83;;;;;;;;;;4974237;28;20039;-78
2020/12/13 05:04:06;;;;;;;35.93;20.57;;;;;;;;;;4973433;28;20041;-78
2020/12/13 05:06:34;;;;;;;40.07;20.17;;;;;;;;;;4962635;28;20480;-77
2020/12/13 05:09:01;;;;;;;36.37;19.67;;;;;;;;;;4960744;28;20040;-77
2020/12/13 05:11:28;;;;;;;36.80;20.17;;;;;;;;;;4955492;28;20033;-78
2020/12/13 05:13:54;;;;;;;38.70;20.47;;;;;;;;;;4969985;28;20078;-78
2020/12/13 05:16:22;;;;;;;35.40;19.43;;;;;;;;;;4976045;28;20054;-78
2020/12/13 05:18:48;;;;;;;37.17;20.30;;;;;;;;;;4971988;28;20086;-77
2020/12/13 05:21:20;;;;;;;40.23;22.03;;;;;;;;;;4956568;28;20054;-77
2020/12/13 05:23:47;;;;;;;38.03;21.97;;;;;;;;;;4975281;28;20062;-77
2020/12/13 05:26:14;;;;;;;36.40;20.90;;;;;;;;;;4969819;28;20030;-77
2020/12/13 05:28:46;;;;;;;45.10;22.17;;;;;;;;;;4969894;28;20035;-76
2020/12/13 05:31:13;;;;;;;37.63;20.30;;;;;;;;;;4970490;28;20042;-77
2020/12/13 05:33:44;;;;;;;39.50;20.87;;;;;;;;;;4963336;28;20058;-76
2020/12/13 05:36:10;;;;;;;38.43;19.10;;;;;;;;;;4951727;28;20108;-77
2020/12/13 05:38:37;;;;;;;35.20;18.60;;;;;;;;;;4967138;28;20030;-77
2020/12/13 05:41:04;;;;;;;31.80;19.30;;;;;;;;;;4969833;28;20908;-77
2020/12/13 05:43:35;;;;;;;34.23;20.20;;;;;;;;;;4969850;28;20042;-77
2020/12/13 05:53:20;;;;;;;34.57;18.43;;;;;;;;;;4973444;28;20031;-77
2020/12/13 05:55:46;;;;;;;33.43;18.97;;;;;;;;;;4974327;28;20085;-77
2020/12/13 05:58:12;;;;;;;28.77;17.13;;;;;;;;;;4952772;29;20039;-77
2020/12/13 06:00:40;;;;;;;31.43;17.77;;;;;;;;;;4954593;28;20043;-77
2020/12/13 06:03:11;;;;;;;30.40;17.43;;;;;;;;;;4956183;28;20042;-77
2020/12/13 06:05:40;;;;;;;33.77;18.80;;;;;;;;;;4970188;28;20054;-77
2020/12/13 06:08:06;;;;;;;30.17;16.77;;;;;;;;;;4973488;28;20038;-77
2020/12/13 06:10:35;;;;;;;26.47;16.87;;;;;;;;;;4972306;28;20026;-77
2020/12/13 06:13:08;;;;;;;36.57;19.07;;;;;;;;;;4972929;28;20030;-77
2020/12/13 06:15:35;;;;;;;31.02;17.63;;;;;;;;;;4974519;28;20027;-77
2020/12/13 06:18:05;;;;;;;35.90;19.10;;;;;;;;;;4971961;28;20634;-78
2020/12/13 06:20:33;;;;;;;35.83;19.03;;;;;;;;;;4972714;28;20030;-77
2020/12/13 06:22:59;;;;;;;30.70;18.13;;;;;;;;;;4965300;28;20107;-76
2020/12/13 06:25:26;;;;;;;32.20;18.67;;;;;;;;;;4960814;28;20109;-77
2020/12/13 06:27:53;;;;;;;35.43;18.77;;;;;;;;;;4971653;28;20054;-77
2020/12/13 06:30:20;;;;;;;30.53;18.77;;;;;;;;;;4972011;28;20026;-77
2020/12/13 06:32:47;;;;;;;29.73;18.23;;;;;;;;;;4957313;28;20094;-77
2020/12/13 06:35:14;;;;;;;34.37;20.20;;;;;;;;;;4952021;28;20035;-76
2020/12/13 06:37:41;;;;;;;32.37;19.00;;;;;;;;;;4968500;28;20035;-77
2020/12/13 06:40:08;;;;;;;32.00;19.80;;;;;;;;;;4971518;28;20498;-77
2020/12/13 06:42:42;;;;;;;37.53;19.33;;;;;;;;;;4971765;28;20031;-77
2020/12/13 06:45:10;;;;;;;34.17;19.13;;;;;;;;;;4971463;28;20117;-77
2020/12/13 06:47:44;;;;;;;38.23;20.43;;;;;;;;;;4972595;28;20038;-77
2020/12/13 06:50:10;;;;;;;37.77;19.03;;;;;;;;;;4972734;28;20038;-77
2020/12/13 06:52:37;;;;;;;36.17;18.00;;;;;;;;;;4955019;28;20121;-77
2020/12/13 06:55:06;;;;;;;32.47;17.87;;;;;;;;;;4963175;28;20038;-77
2020/12/13 06:57:34;;;;;;;36.37;18.90;;;;;;;;;;4971301;28;20035;-77
2020/12/13 07:00:04;;;;;;;27.27;16.83;;;;;;;;;;4968064;28;20844;-77
2020/12/13 07:02:46;;;;;;;27.30;17.37;;;;;;;;;;4963033;28;20035;-77
2020/12/13 07:05:12;;;;;;;27.83;17.17;;;;;;;;;;4955273;28;20106;-78
2020/12/13 07:07:39;;;;;;;27.47;17.10;;;;;;;;;;4954938;28;20035;-77
2020/12/13 07:10:09;;;;;;;22.80;15.43;;;;;;;;;;4960198;28;20023;-77
2020/12/13 07:12:36;;;;;;;27.37;16.27;;;;;;;;;;4971572;28;20113;-77
2020/12/13 07:15:12;;;;;;;27.47;16.23;;;;;;;;;;4971734;28;20118;-78
2020/12/13 07:17:38;;;;;;;27.77;16.83;;;;;;;;;;4967277;28;20042;-78
2020/12/13 07:20:04;;;;;;;32.53;18.77;;;;;;;;;;4971601;28;20118;-76
2020/12/13 07:22:34;;;;;;;30.63;17.70;;;;;;;;;;4965869;28;20035;-77
2020/12/13 07:25:00;;;;;;;26.67;17.27;;;;;;;;;;4958608;28;20123;-78
2020/12/13 07:27:27;;;;;;;31.20;17.67;;;;;;;;;;4952567;29;20024;-78
2020/12/13 07:29:55;;;;;;;29.80;16.77;;;;;;;;;;4983338;28;20156;-78
2020/12/13 07:32:22;;;;;;;23.83;15.23;;;;;;;;;;4986256;28;20034;-78
2020/12/13 07:34:49;;;;;;;25.13;15.90;;;;;;;;;;4969821;28;20035;-78
2020/12/13 07:37:16;;;;;;;27.10;18.60;;;;;;;;;;4954504;28;20058;-78
2020/12/13 07:39:42;;;;;;;32.57;20.30;;;;;;;;;;4954534;28;20039;-78
2020/12/13 07:42:09;;;;;;;36.30;22.50;;;;;;;;;;4953772;28;20110;-78
2020/12/13 07:44:35;;;;;;;34.73;22.60;;;;;;;;;;4952911;28;20118;-78
2020/12/13 07:47:01;;;;;;;29.13;16.43;;;;;;;;;;4962569;28;20498;-78
2020/12/13 07:49:27;;;;;;;27.60;16.30;;;;;;;;;;4971859;28;20123;-78
2020/12/13 07:51:56;;;;;;;27.93;15.90;;;;;;;;;;4989369;28;20035;-78
2020/12/13 07:54:26;;;;;;;25.23;15.10;;;;;;;;;;4972137;28;20070;-77
2020/12/13 07:56:54;;;;;;;29.37;16.70;;;;;;;;;;4973480;28;20030;-77
2020/12/13 07:59:21;;;;;;;27.47;16.07;;;;;;;;;;4974341;28;20031;-78
2020/12/13 08:01:48;;;;;;;33.50;17.63;;;;;;;;;;4962081;28;20031;-78
2020/12/13 08:04:15;;;;;;;30.57;16.70;;;;;;;;;;4953007;29;20062;-77
2020/12/13 08:06:41;;;;;;;28.73;18.13;;;;;;;;;;4953043;29;20147;-78
2020/12/13 08:09:16;;;;;;;34.27;18.30;;;;;;;;;;4964280;28;20030;-78
2020/12/13 08:11:42;;;;;;;28.73;16.77;;;;;;;;;;4972729;28;20026;-78
2020/12/13 08:14:09;;;;;;;29.57;17.43;;;;;;;;;;4975725;28;20486;-78
2020/12/13 08:16:35;;;;;;;31.83;19.30;;;;;;;;;;4956404;28;20111;-78
2020/12/13 08:19:21;;;;;;;27.33;15.77;;;;;;;;;;4960576;28;20062;-79
2020/12/13 08:22:00;;;;;;;29.07;16.97;;;;;;;;;;4948617;28;20054;-78
2020/12/13 08:24:26;;;;;;;29.20;14.93;;;;;;;;;;4973544;28;20482;-78
2020/12/13 08:26:53;;;;;;;27.97;16.60;;;;;;;;;;4977463;28;20018;-77
2020/12/13 08:29:20;;;;;;;24.73;15.83;;;;;;;;;;4975944;28;20041;-78
2020/12/13 08:31:47;;;;;;;26.67;15.67;;;;;;;;;;4980086;28;20023;-78
2020/12/13 08:34:13;;;;;;;28.97;16.47;;;;;;;;;;4956847;28;20034;-78
2020/12/13 08:36:39;;;;;;;29.70;16.37;;;;;;;;;;4964027;28;20050;-77
2020/12/13 08:39:10;;;;;;;29.57;16.30;;;;;;;;;;4978080;28;20054;-77
2020/12/13 08:41:36;;;;;;;26.60;15.27;;;;;;;;;;4970884;28;20102;-78
2020/12/13 08:44:02;;;;;;;25.07;15.00;;;;;;;;;;4952854;28;20035;-77
2020/12/13 08:46:33;;;;;;;25.43;15.50;;;;;;;;;;4963091;28;20084;-77
2020/12/13 08:48:59;;;;;;;24.33;13.43;;;;;;;;;;4970311;28;20154;-78
2020/12/13 08:51:26;;;;;;;20.70;12.83;;;;;;;;;;4956397;28;20038;-79
2020/12/13 08:53:56;;;;;;;20.27;13.07;;;;;;;;;;4964285;28;20050;-78
2020/12/13 08:56:29;;;;;;;17.63;10.77;;;;;;;;;;4969856;28;20050;-78
2020/12/13 08:58:59;;;;;;;16.85;11.40;;;;;;;;;;4966379;28;20035;-77
2020/12/13 09:01:34;;;;;;;16.03;10.70;;;;;;;;;;4963653;28;20784;-77
2020/12/13 09:04:01;;;;;;;18.67;12.17;;;;;;;;;;4972983;28;20030;-78
2020/12/13 09:06:34;;;;;;;16.70;11.27;;;;;;;;;;4976036;28;20023;-77
2020/12/13 09:09:13;;;;;;;14.07;9.82;;;;;;;;;;4967655;28;20027;-78
2020/12/13 09:11:40;;;;;;;14.00;9.07;;;;;;;;;;4951841;29;20031;-78
2020/12/13 09:14:07;;;;;;;14.93;9.30;;;;;;;;;;4954295;28;20110;-77
2020/12/13 09:16:34;;;;;;;14.87;9.20;;;;;;;;;;4957602;28;20118;-78
2020/12/13 09:19:11;;;;;;;13.37;9.17;;;;;;;;;;4969363;28;20035;-76
2020/12/13 09:21:56;;;;;;;13.80;8.37;;;;;;;;;;4955773;28;20083;-77
2020/12/13 09:24:23;;;;;;;15.17;8.43;;;;;;;;;;4952131;28;20038;-77
2020/12/13 09:26:59;;;;;;;11.27;7.90;;;;;;;;;;4968300;28;20023;-77
2020/12/13 09:29:25;;;;;;;11.20;7.07;;;;;;;;;;4960652;28;20035;-78
2020/12/13 09:31:51;;;;;;;10.47;7.17;;;;;;;;;;4974020;28;20610;-78
2020/12/13 09:34:17;;;;;;;8.93;6.20;;;;;;;;;;4974023;28;20031;-78
2020/12/13 09:36:44;;;;;;;12.60;7.13;;;;;;;;;;4960228;28;20045;-78
2020/12/13 09:39:10;;;;;;;8.73;6.07;;;;;;;;;;4978989;28;20110;-78
2020/12/13 09:41:36;;;;;;;10.80;6.20;;;;;;;;;;4975538;28;20046;-78
2020/12/13 09:44:03;;;;;;;8.60;5.20;;;;;;;;;;4967131;28;20027;-79
2020/12/13 09:46:29;;;;;;;12.03;6.13;;;;;;;;;;4967333;28;20053;-78
2020/12/13 09:48:55;;;;;;;8.63;5.80;;;;;;;;;;4953899;29;20035;-78
2020/12/13 09:51:21;;;;;;;10.83;6.03;;;;;;;;;;4971160;28;20065;-78
2020/12/13 09:53:47;;;;;;;9.90;6.13;;;;;;;;;;4972745;28;20031;-78
2020/12/13 09:56:17;;;;;;;12.20;6.50;;;;;;;;;;4977169;28;20034;-76
2020/12/13 09:58:44;;;;;;;9.47;6.40;;;;;;;;;;4969017;28;20037;-77
2020/12/13 10:01:11;;;;;;;10.43;6.70;;;;;;;;;;4984921;28;20030;-77
2020/12/13 10:03:39;;;;;;;14.10;8.63;;;;;;;;;;4981610;28;20039;-77
2020/12/13 10:09:09;;;;;;;12.67;6.93;;;;;;;;;;4967591;28;20134;-77
2020/12/13 10:11:37;;;;;;;10.83;7.70;;;;;;;;;;4970971;28;20054;-77
2020/12/13 10:14:09;;;;;;;19.03;12.27;;;;;;;;;;4977755;28;20034;-77
2020/12/13 10:16:35;;;;;;;15.63;9.53;;;;;;;;;;4965742;28;20122;-78
2020/12/13 10:19:01;;;;;;;17.93;11.47;;;;;;;;;;4968550;28;20041;-78
2020/12/13 10:21:30;;;;;;;17.07;12.60;;;;;;;;;;4973871;28;20034;-77
2020/12/13 10:23:56;;;;;;;17.67;11.33;;;;;;;;;;4978591;28;20041;-78
2020/12/13 10:26:23;;;;;;;21.60;13.40;;;;;;;;;;4960865;28;20558;-77
2020/12/13 10:28:50;;;;;;;26.53;14.53;;;;;;;;;;4969074;28;20039;-76
2020/12/13 10:31:16;;;;;;;19.53;12.77;;;;;;;;;;4954967;28;20027;-76
2020/12/13 10:33:43;;;;;;;25.33;15.30;;;;;;;;;;4960919;28;20117;-77
2020/12/13 10:36:10;;;;;;;22.93;13.47;;;;;;;;;;4970400;28;20039;-77
2020/12/13 10:38:36;;;;;;;16.10;10.87;;;;;;;;;;4956638;28;20054;-77
2020/12/13 10:41:04;;;;;;;16.03;11.47;;;;;;;;;;4973489;28;20043;-77
2020/12/13 10:43:30;;;;;;;16.10;11.37;;;;;;;;;;4961879;28;20514;-77
2020/12/13 10:45:56;;;;;;;15.80;10.30;;;;;;;;;;4950520;28;20127;-77
2020/12/13 10:48:23;;;;;;;14.90;10.10;;;;;;;;;;4964101;28;20039;-76
2020/12/13 10:50:49;;;;;;;18.83;13.53;;;;;;;;;;4970044;28;20058;-75
2020/12/13 10:53:15;;;;;;;22.83;15.50;;;;;;;;;;4969902;28;20031;-75
2020/12/13 10:55:41;;;;;;;17.43;12.67;;;;;;;;;;4985649;28;20433;-78
2020/12/13 10:58:07;;;;;;;11.13;9.03;;;;;;;;;;4989373;28;20117;-77
2020/12/13 11:00:33;;;;;;;14.60;10.47;;;;;;;;;;4976867;28;20019;-76
2020/12/13 11:02:59;;;;;;;17.03;12.00;;;;;;;;;;4970778;28;20037;-76
2020/12/13 11:05:26;;;;;;;17.97;12.33;;;;;;;;;;4971065;28;20031;-76
2020/12/13 11:07:52;;;;;;;20.10;12.60;;;;;;;;;;4963300;28;20023;-76
2020/12/13 11:10:18;;;;;;;17.40;12.13;;;;;;;;;;4979860;28;20035;-77
2020/12/13 11:12:44;;;;;;;19.03;13.50;;;;;;;;;;4973748;28;20031;-76
2020/12/13 11:15:10;;;;;;;33.37;18.77;;;;;;;;;;4973879;28;20495;-76
2020/12/13 11:17:36;;;;;;;18.43;14.63;;;;;;;;;;4977994;28;20088;-77
2020/12/13 11:20:05;;;;;;;22.63;13.80;;;;;;;;;;4961974;28;20520;-77
2020/12/13 11:22:32;;;;;;;22.10;15.97;;;;;;;;;;4959636;28;20042;-77
2020/12/13 11:24:59;;;;;;;21.80;14.77;;;;;;;;;;4970876;28;20027;-77
2020/12/13 11:27:25;;;;;;;20.50;13.83;;;;;;;;;;4969183;28;20490;-77
2020/12/13 11:29:51;;;;;;;17.63;13.10;;;;;;;;;;4968726;28;20026;-76
2020/12/13 11:32:17;;;;;;;16.63;11.83;;;;;;;;;;4968765;28;20035;-76
2020/12/13 11:34:43;;;;;;;17.60;10.80;;;;;;;;;;4969020;28;20042;-76
2020/12/13 11:37:10;;;;;;;17.17;12.30;;;;;;;;;;4969697;28;20031;-77
2020/12/13 11:39:37;;;;;;;17.13;11.77;;;;;;;;;;4975321;28;20036;-77
2020/12/13 11:42:04;;;;;;;16.20;12.27;;;;;;;;;;4975537;28;20041;-76
2020/12/13 11:44:30;;;;;;;19.63;13.03;;;;;;;;;;4954335;28;20036;-77
2020/12/13 11:46:56;;;;;;;22.70;14.33;;;;;;;;;;4984554;28;20082;-76
2020/12/13 11:49:22;;;;;;;20.20;13.43;;;;;;;;;;4986470;28;20038;-76
2020/12/13 11:51:49;;;;;;;21.57;15.73;;;;;;;;;;4971928;28;20065;-76
2020/12/13 11:54:15;;;;;;;16.73;12.80;;;;;;;;;;4968509;28;20065;-76
2020/12/13 11:56:42;;;;;;;26.57;18.57;;;;;;;;;;4975867;28;20090;-76
2020/12/13 11:59:08;;;;;;;21.10;15.23;;;;;;;;;;4984827;28;20070;-76
2020/12/13 12:01:36;;;;;;;23.90;18.73;;;;;;;;;;4953801;28;20480;-76
2020/12/13 12:04:03;;;;;;;21.40;13.57;;;;;;;;;;4959167;28;20030;-76
2020/12/13 12:06:30;;;;;;;22.40;14.70;;;;;;;;;;4987322;28;20034;-76
2020/12/13 12:08:56;;;;;;;24.87;16.07;;;;;;;;;;4975107;28;20034;-76
2020/12/13 12:11:23;;;;;;;20.73;13.63;;;;;;;;;;4986112;28;20057;-75
2020/12/13 12:13:49;;;;;;;15.93;12.50;;;;;;;;;;4977721;28;20045;-76
2020/12/13 12:16:15;;;;;;;20.60;14.90;;;;;;;;;;4969483;28;20031;-76
2020/12/13 12:18:42;;;;;;;33.07;20.93;;;;;;;;;;4971761;28;20031;-77
2020/12/13 12:21:12;;;;;;;15.77;11.67;;;;;;;;;;4974419;28;20100;-76
2020/12/13 12:23:39;;;;;;;17.37;12.40;;;;;;;;;;4968153;28;20034;-76
2020/12/13 12:26:06;;;;;;;16.17;11.50;;;;;;;;;;4965502;28;20026;-76
2020/12/13 12:28:33;;;;;;;18.77;11.93;;;;;;;;;;4958573;28;20110;-77
2020/12/13 12:31:00;;;;;;;19.13;14.77;;;;;;;;;;4955418;28;20206;-76
2020/12/13 12:33:26;;;;;;;17.10;11.40;;;;;;;;;;4967937;28;20045;-76
2020/12/13 12:35:52;;;;;;;17.57;12.20;;;;;;;;;;4978280;28;20023;-75
2020/12/13 12:38:18;;;;;;;16.10;10.93;;;;;;;;;;4969730;28;20090;-76
2020/12/13 12:40:45;;;;;;;18.03;13.33;;;;;;;;;;4973265;28;20054;-76
2020/12/13 12:43:13;;;;;;;47.37;29.20;;;;;;;;;;4960698;28;20078;-76
2020/12/13 12:45:39;;;;;;;48.83;29.70;;;;;;;;;;4985866;28;20041;-76
2020/12/13 12:48:06;;;;;;;49.20;28.33;;;;;;;;;;4987810;28;20034;-76
2020/12/13 12:50:36;;;;;;;50.23;31.53;;;;;;;;;;4969501;28;20065;-77
2020/12/13 12:53:02;;;;;;;21.60;15.50;;;;;;;;;;4967654;28;20023;-76
2020/12/13 12:55:30;;;;;;;30.37;19.03;;;;;;;;;;4959136;28;20122;-75
2020/12/13 12:57:57;;;;;;;17.03;10.10;;;;;;;;;;4949795;28;20107;-76
2020/12/13 13:03:02;;;;;;;16.00;12.10;;;;;;;;;;4970492;28;20063;-78
2020/12/13 13:05:49;;;;;;;15.63;11.00;;;;;;;;;;4970338;28;20035;-77
2020/12/13 13:08:25;;;;;;;15.37;9.67;;;;;;;;;;4958689;28;20097;-77
2020/12/13 13:10:55;;;;;;;15.17;9.60;;;;;;;;;;4959079;28;20031;-77
2020/12/13 13:13:23;;;;;;;13.37;9.20;;;;;;;;;;4950956;28;20058;-77
2020/12/13 13:16:07;;;;;;;11.27;7.90;;;;;;;;;;4966721;28;20041;-78
2020/12/13 13:18:35;;;;;;;11.37;8.27;;;;;;;;;;4962832;28;20043;-78
2020/12/13 13:21:03;;;;;;;12.43;8.70;;;;;;;;;;4968169;28;20030;-77
2020/12/13 13:23:29;;;;;;;11.23;6.87;;;;;;;;;;4965881;28;20069;-77
2020/12/13 13:25:55;;;;;;;10.70;7.57;;;;;;;;;;4953326;28;20026;-77
2020/12/13 13:28:22;;;;;;;11.43;7.10;;;;;;;;;;4967564;28;20065;-78
2020/12/13 13:30:49;;;;;;;12.30;7.63;;;;;;;;;;4969545;28;20131;-77
2020/12/13 13:33:15;;;;;;;11.73;6.40;;;;;;;;;;4969083;28;20058;-78
2020/12/13 13:35:41;;;;;;;11.67;6.83;;;;;;;;;;4968490;28;20693;-80
2020/12/13 13:38:08;;;;;;;11.50;7.13;;;;;;;;;;4967829;28;20411;-77
2020/12/13 13:40:34;;;;;;;10.57;6.40;;;;;;;;;;4967878;28;20027;-80
2020/12/13 13:43:07;;;;;;;11.10;7.27;;;;;;;;;;4948995;29;20112;-77
2020/12/13 13:48:15;;;;;;;15.90;9.10;;;;;;;;;;4965341;28;20028;-77
2020/12/13 13:50:44;;;;;;;19.00;12.03;;;;;;;;;;4956598;28;20041;-79
2020/12/13 13:53:11;;;;;;;16.80;10.67;;;;;;;;;;4968214;28;20034;-78
2020/12/13 13:55:47;;;;;;;19.93;12.93;;;;;;;;;;4967910;28;20121;-78
2020/12/13 13:58:14;;;;;;;13.23;6.40;;;;;;;;;;4968479;28;20126;-78
2020/12/13 14:00:40;;;;;;;12.70;7.37;;;;;;;;;;4969646;28;20070;-78
2020/12/13 14:03:06;;;;;;;11.87;7.37;;;;;;;;;;4969672;28;20588;-78
2020/12/13 14:05:40;;;;;;;10.90;6.90;;;;;;;;;;4960482;28;20136;-78
2020/12/13 14:08:22;;;;;;;9.83;6.87;;;;;;;;;;4952687;28;20035;-78
2020/12/13 14:10:49;;;;;;;12.23;7.73;;;;;;;;;;4968489;28;20062;-78
2020/12/13 14:13:15;;;;;;;9.73;6.60;;;;;;;;;;4968523;28;20078;-77
2020/12/13 14:15:41;;;;;;;13.03;7.60;;;;;;;;;;4976441;28;20034;-77
2020/12/13 14:18:07;;;;;;;13.97;8.03;;;;;;;;;;4951646;29;20031;-78
2020/12/13 14:20:34;;;;;;;28.23;15.80;;;;;;;;;;4956662;28;20027;-76
2020/12/13 14:23:00;;;;;;;22.13;12.70;;;;;;;;;;4952661;28;20038;-77
2020/12/13 14:25:27;;;;;;;17.80;10.67;;;;;;;;;;4966507;28;20042;-77
2020/12/13 14:27:53;;;;;;;16.23;11.53;;;;;;;;;;4962316;28;20038;-77
2020/12/13 14:30:22;;;;;;;13.43;8.70;;;;;;;;;;4984075;28;20085;-77
2020/12/13 14:32:49;;;;;;;12.77;7.73;;;;;;;;;;4957829;28;20055;-76